sensor_id;sensor_type;location;lat;lon;timestamp;pressure;altitude;pressure_sealevel;temperature;humidity
82562;BME280;72228;51.208;10.468;2024-01-30T00:00:11;100474.25;;;-1.56;96.56
82562;BME280;72228;51.208;10.468;2024-01-30T00:02:37;100467.84;;;-1.77;96.61
82562;BME280;72228;51.208;10.468;2024-01-30T00:05:04;100477.66;;;-1.82;96.44
82562;BME280;72228;51.208;10.468;2024-01-30T00:07:30;100477.81;;;-1.91;96.70
82562;BME280;72228;51.208;10.468;2024-01-30T00:09:55;100469.03;;;-1.93;96.53
82562;BME280;72228;51.208;10.468;2024-01-30T00:12:21;100475.25;;;-1.99;96.73
82562;BME280;72228;51.208;10.468;2024-01-30T00:14:47;100474.47;;;-1.93;96.70
82562;BME280;72228;51.208;10.468;2024-01-30T00:17:14;100471.53;;;-1.91;96.60
82562;BME280;72228;51.208;10.468;2024-01-30T00:19:40;100476.44;;;-1.80;97.08
82562;BME280;72228;51.208;10.468;2024-01-30T00:22:12;100473.16;;;-1.69;96.82
82562;BME280;72228;51.208;10.468;2024-01-30T00:24:38;100472.47;;;-1.77;96.94
82562;BME280;72228;51.208;10.468;2024-01-30T00:27:04;100474.94;;;-1.82;96.94
82562;BME280;72228;51.208;10.468;2024-01-30T00:29:30;100476.25;;;-1.72;97.12
82562;BME280;72228;51.208;10.468;2024-01-30T00:31:59;100473.44;;;-1.50;96.61
82562;BME280;72228;51.208;10.468;2024-01-30T00:34:44;100474.25;;;-1.56;96.62
82562;BME280;72228;51.208;10.468;2024-01-30T00:37:11;100465.38;;;-1.72;96.99
82562;BME280;72228;51.208;10.468;2024-01-30T00:39:39;100462.91;;;-1.67;96.42
82562;BME280;72228;51.208;10.468;2024-01-30T00:42:06;100477.47;;;-1.81;96.69
82562;BME280;72228;51.208;10.468;2024-01-30T00:44:35;100463.84;;;-1.87;96.42
82562;BME280;72228;51.208;10.468;2024-01-30T00:47:05;100471.50;;;-1.98;96.64
82562;BME280;72228;51.208;10.468;2024-01-30T00:49:31;100465.78;;;-1.75;96.77
82562;BME280;72228;51.208;10.468;2024-01-30T00:51:57;100469.13;;;-1.73;96.70
82562;BME280;72228;51.208;10.468;2024-01-30T00:54:26;100468.75;;;-1.70;96.77
82562;BME280;72228;51.208;10.468;2024-01-30T00:56:52;100465.03;;;-1.62;96.95
82562;BME280;72228;51.208;10.468;2024-01-30T00:59:18;100469.59;;;-1.69;96.87
82562;BME280;72228;51.208;10.468;2024-01-30T01:01:45;100467.47;;;-1.74;96.61
82562;BME280;72228;51.208;10.468;2024-01-30T01:04:11;100473.25;;;-1.83;96.41
82562;BME280;72228;51.208;10.468;2024-01-30T01:06:37;100473.22;;;-1.90;96.83
82562;BME280;72228;51.208;10.468;2024-01-30T01:09:04;100463.56;;;-1.99;96.62
82562;BME280;72228;51.208;10.468;2024-01-30T01:11:33;100465.19;;;-2.05;96.68
82562;BME280;72228;51.208;10.468;2024-01-30T01:13:59;100462.47;;;-2.05;96.82
82562;BME280;72228;51.208;10.468;2024-01-30T01:16:25;100464.06;;;-1.82;96.94
82562;BME280;72228;51.208;10.468;2024-01-30T01:18:54;100467.41;;;-1.87;97.14
82562;BME280;72228;51.208;10.468;2024-01-30T01:21:21;100466.91;;;-1.97;97.07
82562;BME280;72228;51.208;10.468;2024-01-30T01:23:47;100457.22;;;-2.06;96.90
82562;BME280;72228;51.208;10.468;2024-01-30T01:26:14;100461.38;;;-2.10;97.20
82562;BME280;72228;51.208;10.468;2024-01-30T01:28:41;100462.25;;;-2.03;97.12
82562;BME280;72228;51.208;10.468;2024-01-30T01:31:07;100462.22;;;-2.10;97.24
82562;BME280;72228;51.208;10.468;2024-01-30T01:33:46;100450.03;;;-2.21;97.61
82562;BME280;72228;51.208;10.468;2024-01-30T01:36:15;100453.00;;;-2.16;97.64
82562;BME280;72228;51.208;10.468;2024-01-30T01:38:45;100452.47;;;-2.26;97.41
82562;BME280;72228;51.208;10.468;2024-01-30T01:41:13;100456.81;;;-2.31;97.30
82562;BME280;72228;51.208;10.468;2024-01-30T01:43:39;100450.44;;;-2.24;97.84
82562;BME280;72228;51.208;10.468;2024-01-30T01:46:08;100450.47;;;-2.17;97.89
82562;BME280;72228;51.208;10.468;2024-01-30T01:48:36;100445.00;;;-2.24;97.83
82562;BME280;72228;51.208;10.468;2024-01-30T01:51:02;100445.00;;;-2.24;97.83
82562;BME280;72228;51.208;10.468;2024-01-30T01:53:29;100446.41;;;-2.28;97.83
82562;BME280;72228;51.208;10.468;2024-01-30T01:55:56;100453.78;;;-2.22;97.75
82562;BME280;72228;51.208;10.468;2024-01-30T01:58:32;100445.13;;;-2.04;98.06
82562;BME280;72228;51.208;10.468;2024-01-30T02:01:02;100444.59;;;-2.21;98.02
82562;BME280;72228;51.208;10.468;2024-01-30T02:03:28;100442.47;;;-2.25;97.94
82562;BME280;72228;51.208;10.468;2024-01-30T02:05:55;100442.16;;;-2.09;98.17
82562;BME280;72228;51.208;10.468;2024-01-30T02:08:23;100442.50;;;-2.19;97.90
82562;BME280;72228;51.208;10.468;2024-01-30T02:10:50;100446.63;;;-2.29;98.26
82562;BME280;72228;51.208;10.468;2024-01-30T02:13:36;100449.19;;;-2.21;98.00
82562;BME280;72228;51.208;10.468;2024-01-30T02:16:02;100445.09;;;-2.10;98.26
82562;BME280;72228;51.208;10.468;2024-01-30T02:18:29;100442.13;;;-2.16;98.17
82562;BME280;72228;51.208;10.468;2024-01-30T02:21:16;100443.78;;;-2.14;97.93
82562;BME280;72228;51.208;10.468;2024-01-30T02:23:44;100445.03;;;-2.17;98.16
82562;BME280;72228;51.208;10.468;2024-01-30T02:26:12;100443.19;;;-1.82;98.22
82562;BME280;72228;51.208;10.468;2024-01-30T02:28:39;100431.56;;;-1.97;98.11
82562;BME280;72228;51.208;10.468;2024-01-30T02:31:05;100434.88;;;-2.02;97.98
82562;BME280;72228;51.208;10.468;2024-01-30T02:33:31;100442.06;;;-1.94;98.06
82562;BME280;72228;51.208;10.468;2024-01-30T02:35:57;100439.19;;;-2.14;97.43
82562;BME280;72228;51.208;10.468;2024-01-30T02:38:23;100432.50;;;-2.18;97.92
82562;BME280;72228;51.208;10.468;2024-01-30T02:40:49;100428.91;;;-2.19;97.85
82562;BME280;72228;51.208;10.468;2024-01-30T02:43:16;100427.66;;;-2.23;98.03
82562;BME280;72228;51.208;10.468;2024-01-30T02:45:42;100435.34;;;-1.98;97.96
82562;BME280;72228;51.208;10.468;2024-01-30T02:48:08;100426.09;;;-2.04;97.71
82562;BME280;72228;51.208;10.468;2024-01-30T02:50:34;100429.22;;;-2.07;97.81
82562;BME280;72228;51.208;10.468;2024-01-30T02:53:00;100424.16;;;-2.17;97.48
82562;BME280;72228;51.208;10.468;2024-01-30T02:55:26;100417.66;;;-2.16;98.06
82562;BME280;72228;51.208;10.468;2024-01-30T02:57:51;100418.91;;;-2.18;97.74
82562;BME280;72228;51.208;10.468;2024-01-30T03:00:18;100419.28;;;-1.93;97.94
82562;BME280;72228;51.208;10.468;2024-01-30T03:02:45;100421.34;;;-1.95;97.75
82562;BME280;72228;51.208;10.468;2024-01-30T03:05:11;100414.81;;;-2.01;97.64
82562;BME280;72228;51.208;10.468;2024-01-30T03:07:37;100417.19;;;-1.91;97.87
82562;BME280;72228;51.208;10.468;2024-01-30T03:10:04;100415.81;;;-1.74;97.83
82562;BME280;72228;51.208;10.468;2024-01-30T03:12:31;100408.53;;;-1.67;97.55
82562;BME280;72228;51.208;10.468;2024-01-30T03:14:57;100406.84;;;-1.68;97.45
82562;BME280;72228;51.208;10.468;2024-01-30T03:17:23;100411.41;;;-1.81;97.16
82562;BME280;72228;51.208;10.468;2024-01-30T03:19:50;100402.16;;;-1.87;97.43
82562;BME280;72228;51.208;10.468;2024-01-30T03:22:16;100408.41;;;-1.93;97.05
82562;BME280;72228;51.208;10.468;2024-01-30T03:24:42;100409.50;;;-1.81;97.10
82562;BME280;72228;51.208;10.468;2024-01-30T03:27:08;100402.56;;;-1.90;96.88
82562;BME280;72228;51.208;10.468;2024-01-30T03:29:34;100401.41;;;-1.68;96.96
82562;BME280;72228;51.208;10.468;2024-01-30T03:32:00;100406.00;;;-1.75;97.07
82562;BME280;72228;51.208;10.468;2024-01-30T03:34:26;100390.28;;;-1.79;97.01
82562;BME280;72228;51.208;10.468;2024-01-30T03:36:52;100394.28;;;-1.75;97.23
82562;BME280;72228;51.208;10.468;2024-01-30T03:39:18;100395.50;;;-1.78;96.75
82562;BME280;72228;51.208;10.468;2024-01-30T03:41:43;100396.44;;;-1.57;96.81
82562;BME280;72228;51.208;10.468;2024-01-30T03:44:10;100392.22;;;-1.67;97.08
82562;BME280;72228;51.208;10.468;2024-01-30T03:46:36;100395.94;;;-1.81;96.79
82562;BME280;72228;51.208;10.468;2024-01-30T03:49:02;100390.31;;;-1.73;96.83
82562;BME280;72228;51.208;10.468;2024-01-30T03:51:27;100388.75;;;-1.89;97.01
82562;BME280;72228;51.208;10.468;2024-01-30T03:53:53;100387.91;;;-1.89;97.55
82562;BME280;72228;51.208;10.468;2024-01-30T03:56:19;100389.16;;;-1.92;97.13
82562;BME280;72228;51.208;10.468;2024-01-30T03:58:45;100395.50;;;-1.78;97.16
82562;BME280;72228;51.208;10.468;2024-01-30T04:01:14;100387.28;;;-1.91;97.17
82562;BME280;72228;51.208;10.468;2024-01-30T04:03:41;100385.75;;;-2.00;97.26
82562;BME280;72228;51.208;10.468;2024-01-30T04:06:07;100383.75;;;-1.85;97.49
82562;BME280;72228;51.208;10.468;2024-01-30T04:08:33;100383.59;;;-1.77;97.22
82562;BME280;72228;51.208;10.468;2024-01-30T04:11:03;100392.72;;;-1.91;97.33
82562;BME280;72228;51.208;10.468;2024-01-30T04:13:29;100388.47;;;-2.00;97.15
82562;BME280;72228;51.208;10.468;2024-01-30T04:15:55;100388.28;;;-2.05;97.28
82562;BME280;72228;51.208;10.468;2024-01-30T04:18:21;100385.72;;;-2.07;97.25
82562;BME280;72228;51.208;10.468;2024-01-30T04:20:47;100391.97;;;-2.13;97.33
82562;BME280;72228;51.208;10.468;2024-01-30T04:23:13;100390.84;;;-2.25;97.43
82562;BME280;72228;51.208;10.468;2024-01-30T04:25:39;100383.91;;;-2.34;97.15
82562;BME280;72228;51.208;10.468;2024-01-30T04:28:05;100383.94;;;-2.28;97.37
82562;BME280;72228;51.208;10.468;2024-01-30T04:30:31;100386.38;;;-2.39;97.71
82562;BME280;72228;51.208;10.468;2024-01-30T04:32:57;100395.03;;;-2.29;97.83
82562;BME280;72228;51.208;10.468;2024-01-30T04:35:22;100392.31;;;-2.29;97.81
82562;BME280;72228;51.208;10.468;2024-01-30T04:37:52;100389.06;;;-2.11;97.96
82562;BME280;72228;51.208;10.468;2024-01-30T04:40:18;100381.63;;;-1.96;97.92
82562;BME280;72228;51.208;10.468;2024-01-30T04:42:44;100386.16;;;-2.10;97.87
82562;BME280;72228;51.208;10.468;2024-01-30T04:45:10;100380.72;;;-2.10;97.83
82562;BME280;72228;51.208;10.468;2024-01-30T04:47:36;100383.84;;;-2.06;98.12
82562;BME280;72228;51.208;10.468;2024-01-30T04:50:02;100381.19;;;-2.00;98.00
82562;BME280;72228;51.208;10.468;2024-01-30T04:52:30;100384.81;;;-2.21;97.99
82562;BME280;72228;51.208;10.468;2024-01-30T04:54:56;100381.91;;;-2.19;98.02
82562;BME280;72228;51.208;10.468;2024-01-30T04:57:21;100378.91;;;-2.31;98.00
82562;BME280;72228;51.208;10.468;2024-01-30T04:59:47;100373.53;;;-2.24;97.95
82562;BME280;72228;51.208;10.468;2024-01-30T05:02:13;100368.44;;;-1.99;98.08
82562;BME280;72228;51.208;10.468;2024-01-30T05:04:40;100373.19;;;-2.08;98.24
82562;BME280;72228;51.208;10.468;2024-01-30T05:07:06;100377.03;;;-1.96;98.39
82562;BME280;72228;51.208;10.468;2024-01-30T05:09:32;100379.47;;;-2.07;98.27
82562;BME280;72228;51.208;10.468;2024-01-30T05:11:58;100383.09;;;-1.94;98.22
82562;BME280;72228;51.208;10.468;2024-01-30T05:14:24;100378.41;;;-2.06;97.99
82562;BME280;72228;51.208;10.468;2024-01-30T05:16:50;100389.03;;;-2.18;98.17
82562;BME280;72228;51.208;10.468;2024-01-30T05:19:16;100386.91;;;-2.23;98.22
82562;BME280;72228;51.208;10.468;2024-01-30T05:21:43;100395.69;;;-2.21;98.24
82562;BME280;72228;51.208;10.468;2024-01-30T05:24:08;100391.59;;;-2.10;98.16
82562;BME280;72228;51.208;10.468;2024-01-30T05:26:36;100390.00;;;-2.26;98.33
82562;BME280;72228;51.208;10.468;2024-01-30T05:29:02;100394.19;;;-2.30;98.40
82562;BME280;72228;51.208;10.468;2024-01-30T05:31:28;100389.94;;;-2.04;98.68
82562;BME280;72228;51.208;10.468;2024-01-30T05:33:54;100395.75;;;-2.07;98.49
82562;BME280;72228;51.208;10.468;2024-01-30T05:36:20;100390.06;;;-1.78;98.62
82562;BME280;72228;51.208;10.468;2024-01-30T05:38:47;100383.38;;;-1.82;98.71
82562;BME280;72228;51.208;10.468;2024-01-30T05:41:13;100388.69;;;-1.60;98.35
82562;BME280;72228;51.208;10.468;2024-01-30T05:43:39;100385.38;;;-1.49;98.19
82562;BME280;72228;51.208;10.468;2024-01-30T05:46:06;100389.50;;;-1.60;98.19
82562;BME280;72228;51.208;10.468;2024-01-30T05:48:31;100384.13;;;-1.47;98.19
82562;BME280;72228;51.208;10.468;2024-01-30T05:50:58;100390.19;;;-1.51;97.75
82562;BME280;72228;51.208;10.468;2024-01-30T05:53:25;100391.03;;;-1.51;97.07
82562;BME280;72228;51.208;10.468;2024-01-30T05:55:51;100393.94;;;-1.52;97.37
82562;BME280;72228;51.208;10.468;2024-01-30T05:58:17;100390.78;;;-1.63;97.03
82562;BME280;72228;51.208;10.468;2024-01-30T06:00:43;100381.16;;;-1.58;96.90
82562;BME280;72228;51.208;10.468;2024-01-30T06:03:08;100385.50;;;-1.64;96.94
82562;BME280;72228;51.208;10.468;2024-01-30T06:05:34;100381.38;;;-1.53;97.22
82562;BME280;72228;51.208;10.468;2024-01-30T06:08:01;100378.88;;;-1.48;96.77
82562;BME280;72228;51.208;10.468;2024-01-30T06:10:27;100377.22;;;-1.49;96.37
82562;BME280;72228;51.208;10.468;2024-01-30T06:12:53;100391.81;;;-1.64;97.04
82562;BME280;72228;51.208;10.468;2024-01-30T06:15:19;100388.22;;;-1.71;96.81
82562;BME280;72228;51.208;10.468;2024-01-30T06:18:10;100386.97;;;-1.75;97.16
82562;BME280;72228;51.208;10.468;2024-01-30T06:20:36;100385.44;;;-1.84;96.98
82562;BME280;72228;51.208;10.468;2024-01-30T06:23:02;100384.19;;;-1.88;96.88
82562;BME280;72228;51.208;10.468;2024-01-30T06:25:28;100384.34;;;-1.96;96.98
82562;BME280;72228;51.208;10.468;2024-01-30T06:27:54;100380.81;;;-1.90;97.10
82562;BME280;72228;51.208;10.468;2024-01-30T06:30:20;100376.25;;;-1.76;97.25
82562;BME280;72228;51.208;10.468;2024-01-30T06:32:46;100374.19;;;-1.81;97.39
82562;BME280;72228;51.208;10.468;2024-01-30T06:35:12;100381.84;;;-1.91;97.35
82562;BME280;72228;51.208;10.468;2024-01-30T06:37:38;100375.00;;;-1.80;97.02
82562;BME280;72228;51.208;10.468;2024-01-30T06:40:04;100376.66;;;-1.86;96.82
82562;BME280;72228;51.208;10.468;2024-01-30T06:42:30;100372.91;;;-1.78;97.25
82562;BME280;72228;51.208;10.468;2024-01-30T06:44:56;100371.28;;;-1.73;97.12
82562;BME280;72228;51.208;10.468;2024-01-30T06:47:23;100365.34;;;-1.90;96.87
82562;BME280;72228;51.208;10.468;2024-01-30T06:49:49;100372.19;;;-2.00;97.14
82562;BME280;72228;51.208;10.468;2024-01-30T06:52:14;100369.03;;;-2.04;97.12
82562;BME280;72228;51.208;10.468;2024-01-30T06:54:40;100375.13;;;-1.95;97.54
82562;BME280;72228;51.208;10.468;2024-01-30T06:57:06;100374.28;;;-2.02;97.46
82562;BME280;72228;51.208;10.468;2024-01-30T06:59:37;100379.63;;;-1.81;97.49
82562;BME280;72228;51.208;10.468;2024-01-30T07:02:12;100381.69;;;-1.83;97.61
82562;BME280;72228;51.208;10.468;2024-01-30T07:04:38;100380.25;;;-1.79;97.62
82562;BME280;72228;51.208;10.468;2024-01-30T07:07:05;100375.13;;;-1.47;97.34
82562;BME280;72228;51.208;10.468;2024-01-30T07:09:31;100374.97;;;-1.39;97.32
82562;BME280;72228;51.208;10.468;2024-01-30T07:11:57;100377.72;;;-1.26;97.25
82562;BME280;72228;51.208;10.468;2024-01-30T07:14:25;100375.59;;;-1.24;96.47
82562;BME280;72228;51.208;10.468;2024-01-30T07:16:51;100376.03;;;-1.20;95.99
82562;BME280;72228;51.208;10.468;2024-01-30T07:19:17;100374.97;;;-1.26;95.59
82562;BME280;72228;51.208;10.468;2024-01-30T07:21:43;100381.03;;;-1.30;95.01
82562;BME280;72228;51.208;10.468;2024-01-30T07:24:09;100381.72;;;-1.15;95.46
82562;BME280;72228;51.208;10.468;2024-01-30T07:26:35;100375.84;;;-1.05;94.86
82562;BME280;72228;51.208;10.468;2024-01-30T07:29:01;100378.13;;;-1.16;94.33
82562;BME280;72228;51.208;10.468;2024-01-30T07:31:27;100384.84;;;-1.12;94.05
82562;BME280;72228;51.208;10.468;2024-01-30T07:33:53;100385.28;;;-1.15;94.27
82562;BME280;72228;51.208;10.468;2024-01-30T07:36:20;100384.44;;;-1.09;93.80
82562;BME280;72228;51.208;10.468;2024-01-30T07:38:46;100390.28;;;-0.98;93.76
82562;BME280;72228;51.208;10.468;2024-01-30T07:41:12;100385.91;;;-0.99;93.54
82562;BME280;72228;51.208;10.468;2024-01-30T07:43:38;100383.19;;;-0.86;92.93
82562;BME280;72228;51.208;10.468;2024-01-30T07:46:04;100384.03;;;-0.86;92.61
82562;BME280;72228;51.208;10.468;2024-01-30T07:48:35;100382.56;;;-0.75;92.48
82562;BME280;72228;51.208;10.468;2024-01-30T07:51:01;100384.06;;;-0.59;91.40
82562;BME280;72228;51.208;10.468;2024-01-30T07:53:28;100390.13;;;-0.50;91.38
82562;BME280;72228;51.208;10.468;2024-01-30T07:55:54;100385.94;;;-0.46;91.11
82562;BME280;72228;51.208;10.468;2024-01-30T07:58:20;100384.47;;;-0.42;91.15
82562;BME280;72228;51.208;10.468;2024-01-30T08:00:46;100384.25;;;-0.34;90.98
82562;BME280;72228;51.208;10.468;2024-01-30T08:03:11;100390.28;;;-0.25;90.45
82562;BME280;72228;51.208;10.468;2024-01-30T08:05:38;100384.63;;;-0.17;89.86
82562;BME280;72228;51.208;10.468;2024-01-30T08:08:04;100382.75;;;-0.17;89.81
82562;BME280;72228;51.208;10.468;2024-01-30T08:10:30;100379.56;;;-0.07;89.78
82562;BME280;72228;51.208;10.468;2024-01-30T08:12:56;100373.91;;;0.01;89.03
82562;BME280;72228;51.208;10.468;2024-01-30T08:15:22;100382.28;;;-0.01;89.34
82562;BME280;72228;51.208;10.468;2024-01-30T08:17:48;100371.56;;;0.05;88.95
82562;BME280;72228;51.208;10.468;2024-01-30T08:20:14;100368.56;;;0.26;88.87
82562;BME280;72228;51.208;10.468;2024-01-30T08:22:40;100365.84;;;0.26;88.21
82562;BME280;72228;51.208;10.468;2024-01-30T08:25:07;100374.66;;;0.21;88.60
82562;BME280;72228;51.208;10.468;2024-01-30T08:27:33;100372.09;;;0.33;88.41
82562;BME280;72228;51.208;10.468;2024-01-30T08:30:02;100367.97;;;0.62;87.90
82562;BME280;72228;51.208;10.468;2024-01-30T08:32:29;100372.78;;;0.67;87.27
82562;BME280;72228;51.208;10.468;2024-01-30T08:34:55;100372.53;;;0.75;87.01
82562;BME280;72228;51.208;10.468;2024-01-30T08:37:21;100368.03;;;0.87;86.78
82562;BME280;72228;51.208;10.468;2024-01-30T08:39:46;100366.63;;;1.10;86.02
82562;BME280;72228;51.208;10.468;2024-01-30T08:42:12;100365.69;;;1.22;85.58
82562;BME280;72228;51.208;10.468;2024-01-30T08:44:38;100366.06;;;1.51;84.98
82562;BME280;72228;51.208;10.468;2024-01-30T08:47:04;100374.59;;;1.61;84.62
82562;BME280;72228;51.208;10.468;2024-01-30T08:49:30;100367.28;;;1.80;83.50
82562;BME280;72228;51.208;10.468;2024-01-30T08:51:56;100366.69;;;2.14;82.75
82562;BME280;72228;51.208;10.468;2024-01-30T08:54:23;100367.28;;;2.35;81.96
82562;BME280;72228;51.208;10.468;2024-01-30T08:56:49;100365.91;;;2.62;80.39
82562;BME280;72228;51.208;10.468;2024-01-30T08:59:15;100364.69;;;3.42;78.81
82562;BME280;72228;51.208;10.468;2024-01-30T09:01:41;100367.59;;;3.70;77.81
82562;BME280;72228;51.208;10.468;2024-01-30T09:04:07;100361.38;;;3.87;77.18
82562;BME280;72228;51.208;10.468;2024-01-30T09:06:33;100362.34;;;4.56;75.79
82562;BME280;72228;51.208;10.468;2024-01-30T09:08:59;100356.22;;;4.54;75.55
82562;BME280;72228;51.208;10.468;2024-01-30T09:11:25;100353.97;;;5.08;74.09
82562;BME280;72228;51.208;10.468;2024-01-30T09:13:50;100352.50;;;5.51;70.07
82562;BME280;72228;51.208;10.468;2024-01-30T09:16:16;100355.97;;;6.35;71.73
82562;BME280;72228;51.208;10.468;2024-01-30T09:18:42;100353.16;;;7.01;67.74
82562;BME280;72228;51.208;10.468;2024-01-30T09:21:09;100360.06;;;7.04;67.24
82562;BME280;72228;51.208;10.468;2024-01-30T09:23:35;100359.22;;;7.03;65.75
82562;BME280;72228;51.208;10.468;2024-01-30T09:26:01;100354.84;;;7.66;65.69
82562;BME280;72228;51.208;10.468;2024-01-30T09:28:27;100357.56;;;7.29;64.03
82562;BME280;72228;51.208;10.468;2024-01-30T09:30:52;100359.81;;;7.05;64.93
82562;BME280;72228;51.208;10.468;2024-01-30T09:33:18;100360.13;;;7.09;66.02
82562;BME280;72228;51.208;10.468;2024-01-30T09:35:44;100351.28;;;6.36;67.55
82562;BME280;72228;51.208;10.468;2024-01-30T09:38:10;100354.38;;;6.39;68.76
82562;BME280;72228;51.208;10.468;2024-01-30T09:40:36;100350.44;;;6.35;69.65
82562;BME280;72228;51.208;10.468;2024-01-30T09:43:02;100348.13;;;6.71;68.09
82562;BME280;72228;51.208;10.468;2024-01-30T09:45:29;100351.34;;;6.63;68.32
82562;BME280;72228;51.208;10.468;2024-01-30T09:47:55;100353.19;;;6.79;68.21
82562;BME280;72228;51.208;10.468;2024-01-30T09:50:21;100363.03;;;7.24;66.87
82562;BME280;72228;51.208;10.468;2024-01-30T09:52:47;100366.22;;;7.11;67.05
82562;BME280;72228;51.208;10.468;2024-01-30T09:55:13;100369.16;;;7.31;66.96
82562;BME280;72228;51.208;10.468;2024-01-30T09:57:39;100361.38;;;7.23;65.64
82562;BME280;72228;51.208;10.468;2024-01-30T10:00:06;100366.63;;;7.24;66.04
82562;BME280;72228;51.208;10.468;2024-01-30T10:02:39;100364.13;;;7.55;65.20
82562;BME280;72228;51.208;10.468;2024-01-30T10:05:06;100363.13;;;7.34;66.08
82562;BME280;72228;51.208;10.468;2024-01-30T10:07:32;100365.66;;;7.73;66.75
82562;BME280;72228;51.208;10.468;2024-01-30T10:09:57;100363.47;;;7.75;64.73
82562;BME280;72228;51.208;10.468;2024-01-30T10:12:26;100365.16;;;7.81;64.23
82562;BME280;72228;51.208;10.468;2024-01-30T10:14:52;100374.13;;;7.98;63.51
82562;BME280;72228;51.208;10.468;2024-01-30T10:17:18;100368.69;;;7.71;64.74
82562;BME280;72228;51.208;10.468;2024-01-30T10:19:46;100363.47;;;7.75;65.23
82562;BME280;72228;51.208;10.468;2024-01-30T10:22:12;100371.72;;;8.12;65.11
82562;BME280;72228;51.208;10.468;2024-01-30T10:24:39;100371.00;;;8.27;63.98
82562;BME280;72228;51.208;10.468;2024-01-30T10:27:06;100370.25;;;8.42;62.76
82562;BME280;72228;51.208;10.468;2024-01-30T10:29:32;100378.31;;;8.53;62.64
82562;BME280;72228;51.208;10.468;2024-01-30T10:32:02;100369.53;;;8.62;61.75
82562;BME280;72228;51.208;10.468;2024-01-30T10:34:29;100358.97;;;8.53;62.76
82562;BME280;72228;51.208;10.468;2024-01-30T10:37:11;100365.09;;;8.60;62.24
82562;BME280;72228;51.208;10.468;2024-01-30T10:39:45;100359.63;;;8.76;62.25
82562;BME280;72228;51.208;10.468;2024-01-30T10:42:15;100362.13;;;8.82;61.51
82562;BME280;72228;51.208;10.468;2024-01-30T10:47:28;100362.34;;;8.66;60.77
82562;BME280;72228;51.208;10.468;2024-01-30T10:49:55;100356.81;;;8.66;60.50
82562;BME280;72228;51.208;10.468;2024-01-30T10:52:23;100350.69;;;8.53;61.45
82562;BME280;72228;51.208;10.468;2024-01-30T10:54:54;100350.03;;;8.36;62.56
82562;BME280;72228;51.208;10.468;2024-01-30T10:57:23;100355.47;;;8.21;62.34
82562;BME280;72228;51.208;10.468;2024-01-30T10:59:51;100349.16;;;8.25;61.53
82562;BME280;72228;51.208;10.468;2024-01-30T11:02:18;100351.19;;;8.40;62.51
82562;BME280;72228;51.208;10.468;2024-01-30T11:04:45;100345.88;;;8.33;62.06
82562;BME280;72228;51.208;10.468;2024-01-30T11:07:16;100344.56;;;8.41;61.38
82562;BME280;72228;51.208;10.468;2024-01-30T11:12:27;100337.69;;;8.54;60.93
82562;BME280;72228;51.208;10.468;2024-01-30T11:15:07;100338.50;;;8.44;61.33
82562;BME280;72228;51.208;10.468;2024-01-30T11:22:51;100334.69;;;8.66;60.63
82562;BME280;72228;51.208;10.468;2024-01-30T11:25:20;100324.53;;;8.86;60.29
82562;BME280;72228;51.208;10.468;2024-01-30T11:27:47;100319.84;;;8.97;60.14
82562;BME280;72228;51.208;10.468;2024-01-30T11:30:31;100313.19;;;8.88;59.92
82562;BME280;72228;51.208;10.468;2024-01-30T11:35:27;100319.56;;;8.94;59.75
82562;BME280;72228;51.208;10.468;2024-01-30T11:37:54;100307.69;;;9.03;59.13
82562;BME280;72228;51.208;10.468;2024-01-30T11:40:21;100300.22;;;8.99;59.08
82562;BME280;72228;51.208;10.468;2024-01-30T11:42:47;100294.44;;;9.10;59.48
82562;BME280;72228;51.208;10.468;2024-01-30T11:45:14;100293.03;;;9.08;59.03
82562;BME280;72228;51.208;10.468;2024-01-30T11:47:40;100296.06;;;9.06;59.37
82562;BME280;72228;51.208;10.468;2024-01-30T11:50:06;100295.22;;;8.96;59.40
82562;BME280;72228;51.208;10.468;2024-01-30T11:52:33;100290.50;;;8.76;59.94
82562;BME280;72228;51.208;10.468;2024-01-30T11:55:00;100293.50;;;8.64;60.25
82562;BME280;72228;51.208;10.468;2024-01-30T11:57:29;100279.13;;;8.72;60.53
82562;BME280;72228;51.208;10.468;2024-01-30T11:59:55;100286.63;;;8.82;59.70
82562;BME280;72228;51.208;10.468;2024-01-30T12:02:21;100275.84;;;8.75;60.16
82562;BME280;72228;51.208;10.468;2024-01-30T12:04:47;100280.56;;;8.80;60.08
82562;BME280;72228;51.208;10.468;2024-01-30T12:07:13;100279.47;;;8.86;60.20
82562;BME280;72228;51.208;10.468;2024-01-30T12:09:41;100277.78;;;8.75;60.53
82562;BME280;72228;51.208;10.468;2024-01-30T12:12:08;100274.44;;;8.73;60.94
82562;BME280;72228;51.208;10.468;2024-01-30T12:14:39;100268.94;;;8.88;60.58
82562;BME280;72228;51.208;10.468;2024-01-30T12:19:35;100273.66;;;8.93;60.15
82562;BME280;72228;51.208;10.468;2024-01-30T12:22:01;100266.19;;;8.93;60.39
82562;BME280;72228;51.208;10.468;2024-01-30T12:24:27;100267.28;;;9.02;60.72
82562;BME280;72228;51.208;10.468;2024-01-30T12:26:59;100276.41;;;8.98;60.77
82562;BME280;72228;51.208;10.468;2024-01-30T12:29:25;100265.63;;;8.86;60.66
82562;BME280;72228;51.208;10.468;2024-01-30T12:31:55;100276.09;;;8.64;61.32
82562;BME280;72228;51.208;10.468;2024-01-30T12:34:21;100283.81;;;8.51;61.67
82562;BME280;72228;51.208;10.468;2024-01-30T12:36:48;100275.78;;;8.50;61.83
82562;BME280;72228;51.208;10.468;2024-01-30T12:39:17;100270.50;;;8.48;62.17
82562;BME280;72228;51.208;10.468;2024-01-30T12:41:44;100263.91;;;8.49;62.06
82562;BME280;72228;51.208;10.468;2024-01-30T12:44:10;100270.75;;;8.42;62.15
82562;BME280;72228;51.208;10.468;2024-01-30T12:46:36;100277.13;;;8.42;62.38
82562;BME280;72228;51.208;10.468;2024-01-30T12:49:02;100275.75;;;8.40;62.52
82562;BME280;72228;51.208;10.468;2024-01-30T12:51:28;100274.91;;;8.39;62.84
82562;BME280;72228;51.208;10.468;2024-01-30T12:53:54;100271.00;;;8.35;62.16
82562;BME280;72228;51.208;10.468;2024-01-30T12:56:20;100259.44;;;8.43;62.62